Terminal Aerodrome Forecast
Issued by NWS

Home | Current Version | Previous Version | Graphics & Text | Print | Product List | Glossary On
Versions: 1 2 3 4 5 6 7 8 9 10 11 12 13 14 15 16 17
000
FTUS43 KTOP 080800 AAA
TAFMHK
TAF AMD
KMHK 080840Z 0809/0906 03007KT P6SM -SHRA VCTS BKN050CB
     FM080900 36009KT P6SM SCT030 BKN120
     FM081400 35008KT P6SM SKC=

USA.gov is the U.S. government's official web portal to all federal, state and local government web resources and services.